LPHR Airport Information

Runway Information
Runway 10 Length 5233 ft width 148 ft
Elevation 81 ft Threshold 0 ft Heading 90
Runway 28 Length 5233 ft Width 148 ft
Elevation 117 ft Threshold 0 ft Heading 270
Airport Frequencies
Type APP Name APP Frequency 119.7 MHZ
Type TWR Name TWR Frequency 118 MHZ
Airport Navaids
Type NDB Name Horta Frequency 380 KHZ
Type NDB Name Horta Frequency 360 KHZ
Type VORTAC Name Horta Frequency 112700 KHZ
Airport Weather Information & NOTAM
ADDS - METARS form results

(0121 UTC 23 January 2019)
Data provider http://aviationweather.gov/metar/data/
 
Forecast for: LPHR (HORTA/FAIAL ISLA, PT)
Text: TAF LPHR 221400Z 2215/2224 08012KT 9999 SCT016
Forecast period: 1500 UTC 22 January 2019 to 0000 UTC 23 January 2019
Forecast type: FROM: standard forecast or significant change
Winds: from the E (80 degrees) at 14 MPH (12 knots; 6.2 m/s)
Visibility: 6 or more miles 10+ km)
Ceiling: at least 12,000 feet AGL
Clouds: scattered clouds at 1600 feet AGL
Weather: no significant weather forecast for this period
Text: TEMPO 2215/2221 09015G25KT FEW015 BKN030
Forecast period: 1500 to 2100 UTC 22 January 2019
Forecast type: TEMPORARY: The following changes expected for less than half the time period
Winds: from the E (90 degrees) at 17 MPH (15 knots; 7.7 m/s)
gusting to 29 MPH (25 knots; 12.9 m/s)
Visibility: missing
Ceiling: 3000 feet AGL
Clouds: few clouds at 1500 feet AGL
broken clouds at 3000 feet AGL
Weather: no significant weather forecast for this period